createdAt,value
2018-06-27T00:00:48.440Z,30.43
2018-06-27T00:03:15.652Z,33.18
2018-06-27T00:05:42.944Z,33.48
2018-06-27T00:08:10.183Z,34.95
2018-06-27T00:10:37.374Z,37.63
2018-06-27T00:13:04.610Z,35.75
2018-06-27T00:15:31.816Z,41.75
2018-06-27T00:17:59.016Z,38.55
2018-06-27T00:20:26.364Z,34.40
2018-06-27T00:22:53.666Z,32.58
2018-06-27T00:25:21.093Z,35.73
2018-06-27T00:27:48.478Z,35.38
2018-06-27T00:30:15.721Z,35.80
2018-06-27T00:32:42.952Z,38.15
2018-06-27T00:35:10.152Z,34.18
2018-06-27T00:37:37.352Z,33.40
2018-06-27T00:40:04.583Z,37.33
2018-06-27T00:42:31.790Z,39.60
2018-06-27T00:44:59.190Z,39.83
2018-06-27T00:47:26.418Z,37.25
2018-06-27T00:49:53.650Z,37.60
2018-06-27T00:52:21.033Z,34.80
2018-06-27T00:54:48.258Z,38.50
2018-06-27T00:57:15.480Z,37.95
2018-06-27T00:59:42.699Z,37.73
2018-06-27T01:02:09.968Z,41.03
2018-06-27T01:04:37.166Z,41.10
2018-06-27T01:07:04.689Z,39.05
2018-06-27T01:09:31.868Z,39.38
2018-06-27T01:11:59.111Z,37.63
2018-06-27T01:14:26.320Z,34.85
2018-06-27T01:16:53.559Z,40.98
2018-06-27T01:19:20.762Z,36.25
2018-06-27T01:21:48.280Z,39.73
2018-06-27T01:24:15.760Z,40.40
2018-06-27T01:26:42.961Z,38.10
2018-06-27T01:29:10.196Z,48.52
2018-06-27T01:31:37.460Z,39.30
2018-06-27T01:34:04.669Z,39.50
2018-06-27T01:36:31.848Z,47.07
2018-06-27T01:38:59.063Z,45.00
2018-06-27T01:41:26.261Z,46.45
2018-06-27T01:43:53.478Z,44.13
2018-06-27T01:46:20.660Z,51.42
2018-06-27T01:48:47.868Z,52.75
2018-06-27T01:51:15.112Z,46.53
2018-06-27T01:53:42.308Z,43.70
2018-06-27T01:56:10.426Z,45.92
2018-06-27T01:58:37.941Z,42.88
2018-06-27T02:01:05.246Z,45.10
2018-06-27T02:03:32.552Z,43.85
2018-06-27T02:06:00.053Z,46.53
2018-06-27T02:08:27.300Z,45.90
2018-06-27T02:10:54.616Z,42.55
2018-06-27T02:13:21.841Z,37.33
2018-06-27T02:15:49.077Z,50.15
2018-06-27T02:18:16.409Z,38.20
2018-06-27T02:20:43.584Z,46.83
2018-06-27T02:23:11.870Z,45.75
2018-06-27T02:25:39.813Z,41.60
2018-06-27T02:28:07.673Z,52.07
2018-06-27T02:30:34.860Z,44.27
2018-06-27T02:33:02.397Z,53.57
2018-06-27T02:35:29.672Z,45.27
2018-06-27T02:37:57.100Z,45.00
2018-06-27T02:40:24.342Z,47.78
2018-06-27T02:42:51.589Z,48.58
2018-06-27T02:45:18.789Z,44.98
2018-06-27T02:47:46.005Z,42.63
2018-06-27T02:50:13.445Z,36.93
2018-06-27T02:52:40.649Z,47.83
2018-06-27T02:55:07.809Z,42.55
2018-06-27T02:57:35.081Z,43.45
2018-06-27T03:00:02.304Z,45.17
2018-06-27T03:02:29.573Z,38.85
2018-06-27T03:04:56.760Z,37.28
2018-06-27T03:07:24.047Z,44.13
2018-06-27T03:09:51.292Z,42.20
2018-06-27T03:12:18.548Z,40.70
2018-06-27T03:14:45.771Z,44.83
2018-06-27T03:17:13.176Z,44.83
2018-06-27T03:19:40.406Z,40.38
2018-06-27T03:22:07.641Z,39.65
2018-06-27T03:24:34.848Z,41.00
2018-06-27T03:27:02.088Z,37.88
2018-06-27T03:29:29.341Z,39.63
2018-06-27T03:31:56.528Z,43.08
2018-06-27T03:34:23.738Z,43.40
2018-06-27T03:36:50.947Z,36.00
2018-06-27T03:39:18.160Z,41.63
2018-06-27T03:41:45.829Z,41.55
2018-06-27T03:44:13.052Z,37.00
2018-06-27T03:46:40.291Z,39.53
2018-06-27T03:49:07.478Z,40.67
2018-06-27T03:51:34.679Z,35.27
2018-06-27T03:54:02.038Z,41.95
2018-06-27T03:56:29.181Z,33.75
2018-06-27T03:58:56.475Z,34.43
2018-06-27T04:01:23.675Z,34.18
2018-06-27T04:03:50.940Z,39.03
2018-06-27T04:06:18.193Z,34.70
2018-06-27T04:08:45.468Z,30.00
2018-06-27T04:11:12.722Z,37.20
2018-06-27T04:13:40.102Z,31.90
2018-06-27T04:16:07.453Z,39.55
2018-06-27T04:18:34.833Z,38.13
2018-06-27T04:21:02.094Z,33.75
2018-06-27T04:23:29.346Z,31.70
2018-06-27T04:25:56.553Z,30.17
2018-06-27T04:28:23.765Z,30.75
2018-06-27T04:30:51.005Z,37.13
2018-06-27T04:33:18.222Z,33.90
2018-06-27T04:35:45.463Z,29.35
2018-06-27T04:38:12.652Z,32.17
2018-06-27T04:40:39.873Z,35.58
2018-06-27T04:43:07.191Z,30.50
2018-06-27T04:45:34.497Z,38.13
2018-06-27T04:48:01.815Z,38.23
2018-06-27T04:50:29.066Z,35.70
2018-06-27T04:52:56.325Z,38.28
2018-06-27T04:55:23.571Z,32.28
2018-06-27T04:57:50.839Z,32.10
2018-06-27T05:00:18.049Z,33.80
2018-06-27T05:02:45.341Z,30.43
2018-06-27T05:05:12.595Z,32.25
2018-06-27T05:07:39.800Z,28.07
2018-06-27T05:10:07.043Z,32.67
2018-06-27T05:12:34.282Z,29.40
2018-06-27T05:15:01.492Z,32.40
2018-06-27T05:17:28.725Z,31.85
2018-06-27T05:19:55.958Z,36.75
2018-06-27T05:22:23.258Z,39.15
2018-06-27T05:24:50.546Z,28.67
2018-06-27T05:27:17.934Z,34.43
2018-06-27T05:29:45.053Z,31.60
2018-06-27T05:32:12.267Z,28.30
2018-06-27T05:34:39.525Z,30.45
2018-06-27T05:37:06.849Z,31.68
2018-06-27T05:39:34.079Z,32.65
2018-06-27T05:42:01.337Z,29.97
2018-06-27T05:44:28.602Z,34.53
2018-06-27T05:46:56.062Z,30.10
2018-06-27T05:49:23.361Z,33.18
2018-06-27T05:51:51.001Z,29.77
2018-06-27T05:54:18.340Z,27.82
2018-06-27T05:56:45.565Z,28.87
2018-06-27T05:59:13.106Z,29.52
2018-06-27T06:01:40.321Z,26.73
2018-06-27T06:04:07.574Z,29.32
2018-06-27T06:06:34.951Z,27.70
2018-06-27T06:09:02.318Z,30.40
2018-06-27T06:11:29.580Z,34.30
2018-06-27T06:13:56.838Z,26.97
2018-06-27T06:16:24.063Z,26.93
2018-06-27T06:18:51.430Z,33.35
2018-06-27T06:21:18.649Z,26.30
2018-06-27T06:23:45.870Z,33.87
2018-06-27T06:26:13.154Z,31.00
2018-06-27T06:28:40.418Z,30.75
2018-06-27T06:31:07.693Z,24.80
2018-06-27T06:33:34.988Z,26.05
2018-06-27T06:36:03.070Z,23.02
2018-06-27T06:38:30.453Z,22.50
2018-06-27T06:40:57.918Z,22.73
2018-06-27T06:43:25.157Z,26.65
2018-06-27T06:45:52.426Z,26.87
2018-06-27T06:48:19.679Z,23.73
2018-06-27T06:50:46.958Z,26.90
2018-06-27T06:53:21.041Z,15.45
2018-06-27T06:55:48.293Z,19.10
2018-06-27T06:58:15.703Z,16.40
2018-06-27T07:00:42.992Z,17.62
2018-06-27T07:03:10.217Z,22.95
2018-06-27T07:05:37.651Z,16.30
2018-06-27T07:08:04.951Z,12.73
2018-06-27T07:10:32.206Z,9.90
2018-06-27T07:12:59.457Z,8.03
2018-06-27T07:15:26.915Z,7.97
2018-06-27T07:17:54.208Z,14.25
2018-06-27T07:20:21.489Z,8.15
2018-06-27T07:22:48.841Z,10.95
2018-06-27T07:25:16.203Z,15.43
2018-06-27T07:27:43.916Z,12.82
2018-06-27T07:30:11.306Z,15.30
2018-06-27T07:32:38.562Z,12.28
2018-06-27T07:35:05.847Z,14.83
2018-06-27T07:37:33.085Z,11.40
2018-06-27T07:40:00.289Z,11.43
2018-06-27T07:42:27.541Z,9.65
2018-06-27T07:44:54.802Z,10.53
2018-06-27T07:47:22.130Z,8.97
2018-06-27T07:49:49.499Z,13.50
2018-06-27T07:52:16.785Z,12.30
2018-06-27T07:54:44.017Z,9.30
2018-06-27T07:57:13.030Z,10.32
2018-06-27T07:59:40.262Z,5.75
2018-06-27T08:02:08.115Z,9.40
2018-06-27T08:04:35.508Z,7.15
2018-06-27T08:07:02.761Z,6.13
2018-06-27T08:09:30.011Z,5.40
2018-06-27T08:11:57.516Z,6.22
2018-06-27T08:14:24.777Z,6.75
2018-06-27T08:16:52.056Z,4.20
2018-06-27T08:19:19.310Z,7.70
2018-06-27T08:21:46.582Z,6.47
2018-06-27T08:24:13.792Z,4.83
2018-06-27T08:26:41.031Z,5.90
2018-06-27T08:29:08.313Z,2.87
2018-06-27T08:31:35.653Z,3.35
2018-06-27T08:34:02.979Z,6.78
2018-06-27T08:36:30.222Z,9.83
2018-06-27T08:38:57.455Z,6.50
2018-06-27T08:41:24.689Z,4.62
2018-06-27T08:43:52.190Z,5.92
2018-06-27T08:46:19.520Z,3.80
2018-06-27T08:48:46.935Z,3.20
2018-06-27T08:51:14.306Z,6.00
2018-06-27T08:53:41.548Z,3.58
2018-06-27T08:56:08.895Z,3.47
2018-06-27T08:58:36.125Z,5.10
2018-06-27T09:01:03.455Z,3.17
2018-06-27T09:03:30.727Z,3.30
2018-06-27T09:05:58.099Z,4.58
2018-06-27T09:08:25.318Z,2.30
2018-06-27T09:10:52.637Z,5.70
2018-06-27T09:13:20.750Z,3.50
2018-06-27T09:15:48.003Z,3.33
2018-06-27T09:18:15.252Z,2.40
2018-06-27T09:20:42.521Z,2.55
2018-06-27T09:23:47.809Z,2.43
2018-06-27T09:26:15.022Z,3.20
2018-06-27T09:28:42.280Z,2.23
2018-06-27T09:31:09.724Z,2.53
2018-06-27T09:33:36.891Z,10.60
2018-06-27T10:00:38.181Z,8.03
2018-06-27T10:12:52.980Z,2.57
2018-06-27T10:15:20.220Z,4.90
2018-06-27T10:17:47.502Z,3.77
2018-06-27T10:20:14.753Z,2.50
2018-06-27T10:22:41.984Z,3.13
2018-06-27T10:25:09.211Z,4.20
2018-06-27T10:27:36.503Z,1.97
2018-06-27T10:30:04.329Z,3.30
2018-06-27T10:32:31.590Z,3.53
2018-06-27T10:34:58.907Z,3.83
2018-06-27T10:37:26.254Z,1.30
2018-06-27T10:39:53.539Z,7.13
2018-06-27T10:42:21.098Z,3.17
2018-06-27T10:44:48.393Z,3.53
2018-06-27T10:47:15.610Z,4.53
2018-06-27T10:49:42.825Z,3.47
2018-06-27T10:52:10.114Z,3.90
2018-06-27T10:54:43.172Z,3.70
2018-06-27T10:57:10.453Z,6.03
2018-06-27T10:59:37.660Z,1.63
2018-06-27T11:02:04.898Z,2.03
2018-06-27T11:04:32.369Z,2.17
2018-06-27T11:06:59.674Z,1.53
2018-06-27T11:09:26.874Z,1.77
2018-06-27T11:11:54.143Z,2.30
2018-06-27T11:14:21.455Z,2.50
2018-06-27T11:41:16.181Z,2.17
2018-06-27T11:43:43.470Z,3.00
2018-06-27T11:46:10.702Z,2.10
2018-06-27T11:48:37.925Z,2.60
2018-06-27T11:51:05.438Z,1.50
2018-06-27T11:53:32.778Z,1.60
2018-06-27T11:56:00.102Z,7.03
2018-06-27T11:58:27.454Z,5.60
2018-06-27T12:00:54.717Z,1.30
2018-06-27T12:03:22.166Z,1.83
2018-06-27T12:05:49.393Z,2.02
2018-06-27T12:08:16.648Z,2.72
2018-06-27T12:10:43.898Z,1.30
2018-06-27T12:13:11.149Z,2.60
2018-06-27T12:15:38.514Z,1.50
2018-06-27T12:18:05.972Z,2.10
2018-06-27T12:20:33.236Z,1.80
2018-06-27T12:23:00.443Z,2.50
2018-06-27T12:25:27.668Z,2.20
2018-06-27T12:27:54.898Z,2.98
2018-06-27T12:30:23.221Z,1.12
2018-06-27T12:32:50.959Z,1.72
2018-06-27T12:35:19.162Z,1.50
2018-06-27T12:37:46.409Z,2.40
2018-06-27T12:42:40.541Z,2.27
2018-06-27T12:45:08.042Z,2.55
2018-06-27T12:47:35.301Z,1.40
2018-06-27T12:50:02.685Z,2.10
2018-06-27T13:04:52.750Z,1.30
2018-06-27T13:22:00.510Z,1.77
2018-06-27T13:24:27.751Z,1.50
2018-06-27T13:26:55.009Z,5.70
2018-06-27T13:29:22.890Z,4.28
2018-06-27T13:34:16.871Z,1.30
2018-06-27T13:36:44.124Z,1.75
2018-06-27T13:41:39.221Z,2.50
2018-06-27T13:44:06.462Z,1.80
2018-06-27T13:49:00.396Z,18.70
2018-06-27T13:56:21.224Z,1.57
2018-06-27T14:01:15.182Z,4.60
2018-06-27T14:03:42.380Z,3.58
2018-06-27T14:06:09.622Z,12.85
2018-06-27T14:13:30.416Z,4.28
2018-06-27T14:18:24.446Z,3.60
2018-06-27T14:20:51.674Z,2.77
2018-06-27T14:23:18.894Z,1.42
2018-06-27T14:28:12.874Z,1.70
2018-06-27T14:30:40.165Z,3.10
2018-06-27T14:33:07.467Z,2.12
2018-06-27T14:35:34.719Z,4.42
2018-06-27T14:40:28.943Z,1.83
2018-06-27T14:42:56.191Z,3.33
2018-06-27T14:45:23.608Z,2.40
2018-06-27T14:47:51.132Z,5.17
2018-06-27T14:50:18.409Z,7.28
2018-06-27T14:55:12.496Z,6.53
2018-06-27T15:00:07.943Z,7.75
2018-06-27T15:02:35.293Z,3.12
2018-06-27T15:09:15.371Z,1.77
2018-06-27T15:21:30.179Z,8.25
2018-06-27T15:26:24.223Z,6.45
2018-06-27T15:28:51.388Z,13.98
2018-06-27T15:31:18.637Z,5.72
2018-06-27T15:38:39.362Z,2.55
2018-06-27T15:41:06.730Z,1.55
2018-06-27T15:46:00.749Z,1.85
2018-06-27T15:48:28.047Z,1.70
2018-06-27T15:50:55.327Z,2.10
2018-06-27T15:55:49.421Z,4.72
2018-06-27T15:58:16.678Z,2.80
2018-06-27T16:00:43.996Z,5.50
2018-06-27T16:03:11.276Z,4.42
2018-06-27T16:05:38.738Z,6.50
2018-06-27T16:08:06.366Z,3.20
2018-06-27T16:10:33.608Z,3.10
2018-06-27T16:13:00.828Z,3.58
2018-06-27T16:15:28.074Z,2.60
2018-06-27T16:17:55.344Z,2.17
2018-06-27T16:20:22.638Z,3.67
2018-06-27T16:25:16.914Z,2.47
2018-06-27T16:27:44.183Z,3.02
2018-06-27T16:30:11.517Z,1.60
2018-06-27T16:32:38.738Z,7.90
2018-06-27T16:35:06.341Z,8.20
2018-06-27T16:37:33.599Z,5.92
2018-06-27T16:40:01.082Z,4.58
2018-06-27T16:42:28.318Z,3.37
2018-06-27T16:44:55.573Z,2.20
2018-06-27T16:47:22.810Z,3.50
2018-06-27T16:49:50.034Z,13.05
2018-06-27T16:52:17.298Z,3.65
2018-06-27T16:54:44.655Z,6.95
2018-06-27T16:57:11.910Z,4.70
2018-06-27T16:59:39.219Z,4.58
2018-06-27T17:04:33.421Z,7.27
2018-06-27T17:07:00.728Z,5.15
2018-06-27T17:09:28.057Z,5.60
2018-06-27T17:11:55.344Z,4.03
2018-06-27T17:14:22.611Z,2.70
2018-06-27T17:16:49.867Z,2.00
2018-06-27T17:19:17.156Z,14.53
2018-06-27T17:21:44.423Z,6.12
2018-06-27T17:24:11.645Z,6.12
2018-06-27T17:26:38.899Z,8.88
2018-06-27T17:29:06.225Z,2.37
2018-06-27T17:31:33.776Z,7.03
2018-06-27T17:34:00.999Z,5.35
2018-06-27T17:36:28.279Z,4.87
2018-06-27T17:43:49.225Z,6.03
2018-06-27T17:48:44.213Z,10.48
2018-06-27T17:51:11.540Z,11.83
2018-06-27T17:53:38.952Z,6.20
2018-06-27T17:56:06.347Z,28.60
2018-06-27T17:58:33.699Z,5.37
2018-06-27T18:01:00.958Z,4.40
2018-06-27T18:03:28.227Z,6.17
2018-06-27T18:07:58.506Z,13.93
2018-06-27T18:10:25.803Z,25.13
2018-06-27T18:12:53.026Z,11.93
2018-06-27T18:15:20.305Z,5.27
2018-06-27T18:17:47.535Z,5.27
2018-06-27T18:20:14.745Z,15.17
2018-06-27T18:22:41.983Z,27.37
2018-06-27T18:27:35.960Z,7.53
2018-06-27T18:30:03.725Z,13.20
2018-06-27T18:39:51.799Z,10.30
2018-06-27T18:42:19.021Z,147.17
2018-06-27T18:44:46.247Z,53.02
2018-06-27T18:47:13.486Z,12.80
2018-06-27T18:49:40.742Z,13.55
2018-06-27T18:52:08.691Z,4.17
2018-06-27T18:54:35.938Z,14.98
2018-06-27T18:57:03.222Z,19.07
2018-06-27T18:59:37.339Z,27.42
2018-06-27T19:02:04.790Z,7.65
2018-06-27T19:04:32.024Z,14.67
2018-06-27T19:06:59.278Z,25.32
2018-06-27T19:09:26.569Z,5.58
2018-06-27T19:11:53.777Z,23.75
2018-06-27T19:14:21.071Z,20.80
2018-06-27T19:16:48.333Z,6.73
2018-06-27T19:19:15.579Z,5.80
2018-06-27T19:21:42.845Z,4.45
2018-06-27T19:24:10.057Z,5.00
2018-06-27T19:26:37.294Z,17.85
2018-06-27T19:29:04.538Z,17.53
2018-06-27T19:31:31.807Z,10.30
2018-06-27T19:33:59.032Z,5.22
2018-06-27T19:36:26.296Z,8.20
2018-06-27T19:38:53.531Z,21.12
2018-06-27T19:41:20.847Z,9.33
2018-06-27T19:43:48.031Z,4.78
2018-06-27T19:46:15.255Z,4.05
2018-06-27T19:48:42.887Z,4.72
2018-06-27T19:51:10.099Z,4.35
2018-06-27T19:53:37.350Z,5.70
2018-06-27T19:56:04.664Z,6.10
2018-06-27T19:58:31.975Z,11.63
2018-06-27T20:00:59.331Z,14.20
2018-06-27T20:03:26.586Z,13.10
2018-06-27T20:05:53.783Z,5.35
2018-06-27T20:08:21.068Z,5.80
2018-06-27T20:10:48.503Z,5.70
2018-06-27T20:13:15.725Z,19.30
2018-06-27T20:15:42.994Z,24.40
2018-06-27T20:18:10.226Z,14.60
2018-06-27T20:20:37.540Z,30.57
2018-06-27T20:23:04.870Z,24.95
2018-06-27T20:25:32.126Z,15.40
2018-06-27T20:27:59.331Z,23.87
2018-06-27T20:30:26.953Z,15.60
2018-06-27T20:32:54.170Z,7.40
2018-06-27T20:35:21.397Z,10.20
2018-06-27T20:37:48.977Z,9.48
2018-06-27T20:40:16.226Z,6.65
2018-06-27T20:42:43.453Z,8.23
2018-06-27T20:45:10.687Z,17.77
2018-06-27T20:47:37.910Z,11.53
2018-06-27T20:50:05.585Z,11.10
2018-06-27T20:52:32.809Z,4.40
2018-06-27T20:55:00.014Z,8.58
2018-06-27T20:57:27.353Z,9.33
2018-06-27T20:59:54.863Z,13.78
2018-06-27T21:02:22.118Z,19.62
2018-06-27T21:04:49.349Z,9.00
2018-06-27T21:07:16.590Z,4.60
2018-06-27T21:09:43.825Z,5.17
2018-06-27T21:12:11.038Z,21.50
2018-06-27T21:14:38.490Z,11.40
2018-06-27T21:17:05.962Z,25.53
2018-06-27T21:19:33.292Z,12.73
2018-06-27T21:22:00.720Z,8.70
2018-06-27T21:24:28.057Z,4.10
2018-06-27T21:26:55.310Z,6.13
2018-06-27T21:29:22.766Z,9.90
2018-06-27T21:31:50.228Z,6.00
2018-06-27T21:34:17.519Z,7.50
2018-06-27T21:36:46.321Z,5.50
2018-06-27T21:39:13.521Z,3.10
2018-06-27T21:41:40.726Z,3.50
2018-06-27T21:44:07.956Z,19.00
2018-06-27T21:46:35.959Z,16.10
2018-06-27T21:49:03.182Z,16.33
2018-06-27T21:51:30.390Z,4.77
2018-06-27T21:53:57.566Z,6.50
2018-06-27T21:56:24.794Z,6.08
2018-06-27T21:58:52.027Z,5.90
2018-06-27T22:01:19.245Z,5.30
2018-06-27T22:03:46.488Z,5.80
2018-06-27T22:06:14.093Z,4.40
2018-06-27T22:08:41.302Z,13.80
2018-06-27T22:11:08.589Z,47.38
2018-06-27T22:13:36.072Z,10.25
2018-06-27T22:16:03.389Z,8.25
2018-06-27T22:18:30.714Z,5.42
2018-06-27T22:20:57.969Z,7.62
2018-06-27T22:23:25.585Z,5.30
2018-06-27T22:25:52.797Z,5.30
2018-06-27T22:28:19.981Z,11.65
2018-06-27T22:30:47.210Z,3.70
2018-06-27T22:33:14.370Z,5.30
2018-06-27T22:35:41.794Z,7.70
2018-06-27T22:38:09.077Z,14.25
2018-06-27T22:40:36.261Z,4.03
2018-06-27T22:43:03.584Z,3.85
2018-06-27T22:45:30.857Z,4.30
2018-06-27T22:47:58.086Z,6.67
2018-06-27T22:50:25.354Z,8.38
2018-06-27T22:52:52.735Z,10.38
2018-06-27T22:55:20.050Z,7.07
2018-06-27T22:57:47.369Z,4.50
2018-06-27T23:00:14.926Z,2.62
2018-06-27T23:02:42.145Z,3.42
2018-06-27T23:05:09.385Z,10.80
2018-06-27T23:07:36.627Z,5.05
2018-06-27T23:10:04.144Z,20.27
2018-06-27T23:12:31.528Z,4.50
2018-06-27T23:14:58.906Z,5.77
2018-06-27T23:17:26.157Z,3.12
2018-06-27T23:19:53.387Z,4.62
2018-06-27T23:22:32.435Z,6.20
2018-06-27T23:24:59.695Z,3.95
2018-06-27T23:27:26.948Z,2.20
2018-06-27T23:29:54.193Z,5.30
2018-06-27T23:32:21.446Z,4.08
2018-06-27T23:34:48.694Z,4.47
2018-06-27T23:37:15.924Z,2.90
2018-06-27T23:39:43.115Z,4.30
2018-06-27T23:42:10.377Z,2.50
2018-06-27T23:44:37.597Z,3.90
2018-06-27T23:47:04.869Z,5.60
2018-06-27T23:49:32.197Z,6.05
2018-06-27T23:51:59.425Z,6.00
2018-06-27T23:54:26.624Z,3.25
2018-06-27T23:56:53.928Z,4.90
2018-06-27T23:59:21.160Z,3.50
